createdAt,value
2023-01-02T00:00:49.818Z,7.90
2023-01-02T00:03:36.031Z,7.80
2023-01-02T00:06:22.655Z,7.80
2023-01-02T00:09:09.045Z,7.80
2023-01-02T00:11:55.162Z,7.80
2023-01-02T00:14:41.113Z,7.70
2023-01-02T00:17:27.040Z,7.70
2023-01-02T00:20:13.248Z,7.60
2023-01-02T00:22:59.032Z,7.50
2023-01-02T00:25:45.078Z,7.50
2023-01-02T00:28:31.112Z,7.50
2023-01-02T00:31:17.390Z,7.30
2023-01-02T00:34:03.464Z,7.20
2023-01-02T00:36:49.451Z,7.10
2023-01-02T00:39:35.476Z,7.10
2023-01-02T00:42:21.402Z,7.00
2023-01-02T00:45:08.059Z,6.90
2023-01-02T00:47:54.250Z,6.80
2023-01-02T00:50:40.443Z,6.80
2023-01-02T00:53:26.193Z,6.70
2023-01-02T00:56:12.387Z,6.70
2023-01-02T00:58:58.298Z,6.70
2023-01-02T01:01:44.598Z,6.70
2023-01-02T01:04:32.979Z,6.70
2023-01-02T01:07:18.937Z,6.70
2023-01-02T01:10:04.910Z,6.70
2023-01-02T01:12:50.998Z,6.70
2023-01-02T01:15:36.830Z,6.70
2023-01-02T01:18:22.824Z,6.80
2023-01-02T01:21:09.752Z,6.80
2023-01-02T01:23:55.918Z,6.80
2023-01-02T01:26:41.925Z,6.80
2023-01-02T01:29:27.542Z,6.80
2023-01-02T01:32:13.502Z,6.90
2023-01-02T01:34:59.671Z,7.00
2023-01-02T01:37:45.633Z,7.10
2023-01-02T01:40:37.253Z,6.90
2023-01-02T01:43:42.194Z,6.80
2023-01-02T01:46:34.879Z,6.80
2023-01-02T01:49:25.429Z,6.70
2023-01-02T01:52:13.712Z,6.80
2023-01-02T01:55:08.834Z,6.90
2023-01-02T01:57:57.894Z,6.90
2023-01-02T02:00:44.549Z,6.90
2023-01-02T02:03:32.090Z,6.90
2023-01-02T02:06:18.164Z,6.70
2023-01-02T02:09:06.169Z,6.50
2023-01-02T02:11:54.422Z,6.40
2023-01-02T02:14:40.086Z,6.30
2023-01-02T02:17:33.725Z,6.20
2023-01-02T02:20:25.802Z,6.30
2023-01-02T02:23:15.002Z,6.40
2023-01-02T02:26:07.248Z,6.50
2023-01-02T02:28:53.289Z,6.50
2023-01-02T02:31:58.847Z,6.60
2023-01-02T02:34:49.858Z,6.60
2023-01-02T02:37:35.725Z,6.60
2023-01-02T02:40:36.961Z,6.50
2023-01-02T02:43:31.922Z,6.50
2023-01-02T02:46:37.058Z,6.30
2023-01-02T02:49:29.004Z,6.20
2023-01-02T02:52:17.894Z,6.20
2023-01-02T02:55:07.121Z,6.20
2023-01-02T02:57:53.427Z,6.20
2023-01-02T03:00:39.478Z,6.20
2023-01-02T03:03:25.531Z,6.20
2023-01-02T03:06:21.372Z,6.00
2023-01-02T03:09:12.802Z,6.00
2023-01-02T03:12:22.263Z,5.90
2023-01-02T03:15:11.088Z,5.90
2023-01-02T03:18:15.762Z,5.90
2023-01-02T03:21:07.953Z,6.10
2023-01-02T03:23:55.235Z,5.90
2023-01-02T03:26:43.829Z,5.70
2023-01-02T03:29:52.334Z,5.70
2023-01-02T03:32:40.565Z,5.70
2023-01-02T03:35:35.574Z,6.00
2023-01-02T03:38:27.486Z,6.00
2023-01-02T03:41:33.861Z,6.10
2023-01-02T03:44:22.466Z,6.10
2023-01-02T03:47:08.087Z,6.20
2023-01-02T03:49:57.622Z,6.20
2023-01-02T03:52:43.807Z,6.10
2023-01-02T03:55:33.390Z,6.10
2023-01-02T03:58:27.704Z,6.20
2023-01-02T04:01:21.853Z,6.10
2023-01-02T04:04:15.493Z,6.10
2023-01-02T04:07:03.106Z,6.00
2023-01-02T04:09:49.617Z,6.00
2023-01-02T04:12:36.814Z,6.00
2023-01-02T04:15:24.837Z,6.00
2023-01-02T04:18:40.283Z,5.90
2023-01-02T04:21:33.192Z,6.00
2023-01-02T04:24:21.623Z,5.90
2023-01-02T04:27:18.416Z,6.00
2023-01-02T04:30:04.388Z,6.00
2023-01-02T04:32:50.915Z,6.00
2023-01-02T04:35:36.646Z,6.00
2023-01-02T04:38:22.861Z,6.00
2023-01-02T04:41:09.956Z,6.00
2023-01-02T04:43:56.378Z,6.00
2023-01-02T04:46:42.231Z,6.10
2023-01-02T04:49:28.340Z,6.20
2023-01-02T04:52:14.043Z,6.20
2023-01-02T04:55:00.155Z,6.20
2023-01-02T04:57:46.135Z,6.20
2023-01-02T05:00:32.196Z,6.10
2023-01-02T05:03:18.387Z,6.00
2023-01-02T05:06:04.475Z,6.00
2023-01-02T05:08:50.215Z,5.90
2023-01-02T05:11:36.517Z,5.70
2023-01-02T05:14:22.527Z,5.60
2023-01-02T05:17:08.599Z,5.50
2023-01-02T05:19:54.608Z,5.50
2023-01-02T05:22:59.906Z,5.50
2023-01-02T05:25:47.123Z,5.50
2023-01-02T05:28:38.419Z,5.60
2023-01-02T05:31:24.970Z,5.60
2023-01-02T05:34:12.960Z,5.70
2023-01-02T05:36:58.905Z,5.70
2023-01-02T05:39:44.911Z,5.60
2023-01-02T05:42:30.927Z,5.60
2023-01-02T05:45:17.028Z,5.40
2023-01-02T05:48:03.099Z,5.30
2023-01-02T05:50:48.850Z,5.30
2023-01-02T05:53:35.347Z,5.30
2023-01-02T05:56:21.617Z,5.30
2023-01-02T05:59:08.436Z,5.30
2023-01-02T06:01:54.355Z,5.30
2023-01-02T06:04:40.446Z,5.30
2023-01-02T06:07:26.396Z,5.20
2023-01-02T06:10:12.408Z,5.20
2023-01-02T06:12:58.416Z,5.10
2023-01-02T06:15:44.547Z,5.10
2023-01-02T06:18:31.319Z,5.20
2023-01-02T06:21:18.161Z,5.00
2023-01-02T06:24:04.434Z,5.00
2023-01-02T06:26:50.386Z,5.00
2023-01-02T06:29:36.423Z,5.10
2023-01-02T06:32:22.530Z,5.00
2023-01-02T06:35:08.645Z,4.90
2023-01-02T06:37:54.427Z,4.70
2023-01-02T06:40:40.339Z,4.50
2023-01-02T06:43:26.773Z,4.50
2023-01-02T06:46:13.465Z,4.50
2023-01-02T06:48:59.203Z,4.60
2023-01-02T06:51:45.149Z,4.60
2023-01-02T06:54:32.456Z,4.50
2023-01-02T06:57:18.178Z,4.40
2023-01-02T07:00:04.329Z,4.50
2023-01-02T07:02:50.232Z,4.50
2023-01-02T07:05:36.159Z,4.60
2023-01-02T07:08:22.228Z,4.60
2023-01-02T07:11:08.422Z,4.60
2023-01-02T07:13:54.699Z,4.60
2023-01-02T07:16:40.619Z,4.60
2023-01-02T07:19:26.710Z,4.60
2023-01-02T07:22:12.700Z,4.60
2023-01-02T07:24:59.051Z,4.60
2023-01-02T07:27:44.669Z,4.60
2023-01-02T07:30:30.769Z,4.50
2023-01-02T07:33:17.217Z,4.50
2023-01-02T07:36:04.443Z,4.50
2023-01-02T07:38:54.482Z,4.50
2023-01-02T07:41:40.662Z,4.60
2023-01-02T07:44:37.594Z,4.70
2023-01-02T07:47:23.536Z,4.90
2023-01-02T07:50:09.626Z,5.00
2023-01-02T07:52:56.442Z,5.50
2023-01-02T07:55:42.494Z,6.10
2023-01-02T07:58:28.766Z,6.90
2023-01-02T08:01:14.688Z,7.80
2023-01-02T08:04:00.799Z,8.60
2023-01-02T08:06:46.919Z,9.40
2023-01-02T08:09:33.033Z,10.10
2023-01-02T08:12:18.993Z,10.70
2023-01-02T08:15:05.560Z,10.90
2023-01-02T08:17:51.333Z,11.10
2023-01-02T08:20:37.411Z,11.30
2023-01-02T08:23:23.319Z,11.30
2023-01-02T08:26:10.122Z,11.30
2023-01-02T08:28:55.863Z,11.20
2023-01-02T08:31:44.072Z,11.40
2023-01-02T08:34:30.408Z,11.70
2023-01-02T08:37:16.391Z,11.60
2023-01-02T08:40:02.307Z,11.20
2023-01-02T08:42:48.651Z,10.70
2023-01-02T08:45:34.785Z,10.60
2023-01-02T08:48:21.811Z,10.20
2023-01-02T08:51:07.846Z,10.00
2023-01-02T08:53:53.678Z,9.80
2023-01-02T08:56:41.398Z,9.60
2023-01-02T08:59:28.154Z,9.50
2023-01-02T09:02:15.092Z,9.40
2023-01-02T09:05:01.139Z,9.20
2023-01-02T09:07:47.188Z,9.20
2023-01-02T09:10:33.382Z,9.10
2023-01-02T09:13:19.585Z,9.10
2023-01-02T09:16:05.751Z,9.20
2023-01-02T09:18:51.549Z,9.20
2023-01-02T09:21:37.287Z,9.30
2023-01-02T09:24:23.259Z,9.30
2023-01-02T09:27:09.739Z,9.40
2023-01-02T09:29:56.579Z,9.50
2023-01-02T09:32:42.322Z,9.60
2023-01-02T09:35:28.570Z,9.80
2023-01-02T09:38:15.000Z,9.90
2023-01-02T09:41:02.984Z,10.10
2023-01-02T09:43:51.987Z,10.30
2023-01-02T09:46:41.287Z,10.50
2023-01-02T09:49:53.506Z,10.60
2023-01-02T09:52:44.236Z,11.00
2023-01-02T09:55:38.677Z,11.80
2023-01-02T09:58:43.756Z,12.60
2023-01-02T10:01:36.069Z,13.60
2023-01-02T10:04:37.249Z,14.40
2023-01-02T10:07:26.619Z,15.20
2023-01-02T10:10:27.403Z,16.10
2023-01-02T10:14:08.826Z,16.70
2023-01-02T10:16:44.759Z,17.80
2023-01-02T10:19:43.043Z,19.40
2023-01-02T10:22:42.168Z,20.80
2023-01-02T10:25:38.617Z,22.10
2023-01-02T10:28:28.205Z,22.90
2023-01-02T10:31:23.283Z,24.00
2023-01-02T10:34:32.191Z,23.80
2023-01-02T10:37:18.018Z,23.20
2023-01-02T10:40:04.894Z,22.50
2023-01-02T10:42:59.395Z,22.50
2023-01-02T10:45:46.102Z,22.30
2023-01-02T10:48:34.263Z,21.20
2023-01-02T10:51:20.299Z,20.50
2023-01-02T10:54:07.432Z,19.90
2023-01-02T10:56:55.010Z,19.20
2023-01-02T10:59:43.912Z,18.60
2023-01-02T11:02:40.319Z,18.20
2023-01-02T11:05:28.045Z,18.30
2023-01-02T11:08:15.589Z,18.80
2023-01-02T11:11:01.830Z,19.20
2023-01-02T11:13:54.126Z,19.50
2023-01-02T11:16:42.063Z,19.30
2023-01-02T11:19:30.037Z,18.80
2023-01-02T11:22:17.894Z,18.10
2023-01-02T11:25:06.071Z,17.80
2023-01-02T11:27:56.161Z,17.40
2023-01-02T11:30:46.861Z,17.30
2023-01-02T11:33:34.488Z,17.40
2023-01-02T11:36:20.631Z,17.50
2023-01-02T11:39:23.060Z,17.70
2023-01-02T11:42:27.775Z,17.60
2023-01-02T11:45:17.673Z,17.80
2023-01-02T11:48:05.535Z,17.40
2023-01-02T11:50:52.474Z,17.00
2023-01-02T11:53:40.600Z,16.60
2023-01-02T11:56:32.734Z,16.50
2023-01-02T11:59:25.147Z,16.50
2023-01-02T12:02:14.363Z,16.40
2023-01-02T12:05:00.627Z,16.60
2023-01-02T12:07:51.042Z,16.70
2023-01-02T12:10:45.912Z,16.70
2023-01-02T12:13:40.680Z,16.70
2023-01-02T12:16:34.185Z,16.90
2023-01-02T12:19:23.414Z,17.10
2023-01-02T12:22:22.561Z,17.20
2023-01-02T12:25:27.559Z,17.20
2023-01-02T12:28:16.711Z,17.30
2023-01-02T12:31:16.726Z,17.30
2023-01-02T12:34:04.580Z,17.20
2023-01-02T12:37:02.676Z,17.00
2023-01-02T12:40:07.423Z,16.80
2023-01-02T12:43:14.407Z,16.60
2023-01-02T12:46:03.182Z,16.50
2023-01-02T12:49:07.803Z,16.50
2023-01-02T12:52:12.071Z,16.60
2023-01-02T12:55:17.211Z,16.60
2023-01-02T12:58:07.207Z,16.60
2023-01-02T13:00:56.239Z,16.60
2023-01-02T13:04:11.615Z,16.70
2023-01-02T13:06:58.139Z,16.50
2023-01-02T13:09:45.029Z,16.40
2023-01-02T13:12:32.102Z,16.30
2023-01-02T13:15:23.048Z,16.20
2023-01-02T13:18:28.207Z,16.20
2023-01-02T13:21:23.941Z,16.20
2023-01-02T13:24:11.925Z,16.20
2023-01-02T13:26:58.877Z,16.20
2023-01-02T13:29:45.810Z,16.10
2023-01-02T13:32:32.087Z,16.10
2023-01-02T13:35:17.935Z,16.00
2023-01-02T13:38:05.997Z,15.90
2023-01-02T13:40:54.372Z,15.90
2023-01-02T13:43:40.551Z,15.80
2023-01-02T13:47:02.254Z,15.60
2023-01-02T13:49:36.722Z,15.50
2023-01-02T13:52:22.888Z,15.40
2023-01-02T13:55:12.134Z,15.30
2023-01-02T13:58:17.770Z,15.20
2023-01-02T14:01:22.370Z,15.10
2023-01-02T14:04:08.352Z,15.00
2023-01-02T14:06:54.570Z,15.10
2023-01-02T14:10:01.327Z,15.10
2023-01-02T14:12:54.070Z,15.10
2023-01-02T14:15:57.738Z,15.00
2023-01-02T14:18:46.869Z,14.90
2023-01-02T14:21:56.433Z,14.80
2023-01-02T14:24:44.548Z,14.60
2023-01-02T14:27:33.141Z,14.50
2023-01-02T14:30:30.342Z,14.40
2023-01-02T14:33:42.753Z,14.30
2023-01-02T14:36:40.021Z,14.30
2023-01-02T14:39:30.616Z,14.20
2023-01-02T14:42:41.766Z,14.10
2023-01-02T14:45:30.367Z,14.00
2023-01-02T14:48:26.924Z,13.90
2023-01-02T14:51:23.173Z,13.90
2023-01-02T14:54:09.719Z,13.80
2023-01-02T14:57:01.507Z,13.70
2023-01-02T14:59:48.588Z,13.70
2023-01-02T15:02:36.755Z,13.60
2023-01-02T15:05:28.123Z,13.60
2023-01-02T15:08:16.359Z,13.50
2023-01-02T15:11:21.931Z,13.40
2023-01-02T15:14:10.155Z,13.40
2023-01-02T15:16:58.686Z,13.30
2023-01-02T15:19:45.070Z,13.20
2023-01-02T15:22:33.041Z,13.10
2023-01-02T15:25:32.831Z,13.00
2023-01-02T15:28:29.718Z,12.90
2023-01-02T15:31:15.796Z,12.80
2023-01-02T15:34:01.938Z,12.80
2023-01-02T15:36:47.626Z,12.70
2023-01-02T15:39:35.607Z,12.70
2023-01-02T15:42:41.306Z,12.70
2023-01-02T15:45:27.299Z,12.70
2023-01-02T15:48:13.509Z,12.60
2023-01-02T15:51:00.047Z,12.70
2023-01-02T15:53:47.331Z,12.60
2023-01-02T15:56:37.145Z,12.70
2023-01-02T15:59:28.260Z,12.60
2023-01-02T16:02:33.249Z,12.60
2023-01-02T16:05:20.372Z,12.50
2023-01-02T16:08:06.272Z,12.50
2023-01-02T16:11:01.469Z,12.50
2023-01-02T16:14:20.937Z,12.50
2023-01-02T16:17:12.930Z,12.40
2023-01-02T16:20:00.588Z,12.40
2023-01-02T16:23:07.779Z,12.30
2023-01-02T16:25:54.115Z,12.30
2023-01-02T16:28:41.962Z,12.30
2023-01-02T16:31:29.041Z,12.20
2023-01-02T16:34:24.725Z,12.20
2023-01-02T16:37:16.513Z,12.20
2023-01-02T16:41:01.571Z,12.20
2023-01-02T16:43:30.133Z,12.20
2023-01-02T16:46:16.226Z,12.20
2023-01-02T16:49:05.378Z,12.20
2023-01-02T16:51:53.542Z,12.10
2023-01-02T16:54:39.524Z,12.00
2023-01-02T16:57:25.662Z,12.00
2023-01-02T17:00:12.887Z,11.90
2023-01-02T17:02:58.933Z,11.90
2023-01-02T17:06:02.016Z,11.90
2023-01-02T17:08:48.751Z,11.90
2023-01-02T17:11:34.634Z,11.90
2023-01-02T17:14:20.496Z,11.80
2023-01-02T17:17:06.688Z,11.70
2023-01-02T17:19:52.402Z,11.70
2023-01-02T17:22:38.666Z,11.60
2023-01-02T17:25:24.483Z,11.60
2023-01-02T17:28:10.808Z,11.50
2023-01-02T17:30:56.637Z,11.40
2023-01-02T17:33:42.439Z,11.40
2023-01-02T17:36:28.531Z,11.30
2023-01-02T17:39:14.409Z,11.30
2023-01-02T17:42:00.379Z,11.30
2023-01-02T17:44:46.611Z,11.20
2023-01-02T17:47:59.462Z,11.20
2023-01-02T17:50:38.036Z,11.10
2023-01-02T17:53:26.078Z,11.10
2023-01-02T17:56:21.446Z,11.10
2023-01-02T17:59:08.866Z,11.10
2023-01-02T18:01:54.711Z,11.10
2023-01-02T18:04:40.979Z,11.00
2023-01-02T18:07:26.815Z,11.00
2023-01-02T18:10:19.116Z,10.90
2023-01-02T18:13:06.406Z,10.80
2023-01-02T18:15:52.096Z,10.80
2023-01-02T18:18:38.203Z,10.80
2023-01-02T18:21:28.378Z,10.80
2023-01-02T18:24:15.226Z,10.90
2023-01-02T18:27:10.312Z,11.00
2023-01-02T18:30:02.703Z,11.10
2023-01-02T18:32:50.105Z,11.10
2023-01-02T18:38:42.157Z,11.30
2023-01-02T18:41:28.805Z,11.30
2023-01-02T18:44:22.463Z,11.30
2023-01-02T18:47:15.514Z,11.30
2023-01-02T18:50:23.686Z,11.30
2023-01-02T18:53:17.597Z,11.40
2023-01-02T18:56:26.787Z,11.40
2023-01-02T18:59:17.153Z,11.40
2023-01-02T19:02:18.128Z,11.30
2023-01-02T19:05:18.068Z,11.40
2023-01-02T19:08:13.126Z,11.30
2023-01-02T19:11:19.273Z,11.30
2023-01-02T19:14:31.536Z,11.30
2023-01-02T19:17:25.497Z,11.30
2023-01-02T19:20:11.947Z,11.30
2023-01-02T19:22:58.003Z,11.30
2023-01-02T19:25:44.331Z,11.20
2023-01-02T19:28:30.909Z,11.30
2023-01-02T19:31:17.071Z,11.30
2023-01-02T19:34:03.735Z,11.30
2023-01-02T19:36:50.662Z,11.30
2023-01-02T19:39:40.106Z,11.20
2023-01-02T19:42:28.299Z,11.20
2023-01-02T19:45:16.247Z,11.20
2023-01-02T19:48:01.964Z,11.30
2023-01-02T19:50:48.089Z,11.30
2023-01-02T19:53:33.985Z,11.40
2023-01-02T19:56:19.961Z,11.40
2023-01-02T19:59:10.804Z,11.40
2023-01-02T20:01:59.049Z,11.50
2023-01-02T20:04:45.551Z,11.60
2023-01-02T20:07:31.661Z,11.70
2023-01-02T20:10:17.819Z,11.80
2023-01-02T20:13:03.396Z,11.80
2023-01-02T20:15:49.593Z,11.70
2023-01-02T20:18:35.630Z,11.80
2023-01-02T20:21:22.146Z,11.80
2023-01-02T20:24:07.954Z,11.80
2023-01-02T20:26:57.551Z,11.80
2023-01-02T20:29:43.518Z,11.80
2023-01-02T20:32:30.158Z,11.80
2023-01-02T20:35:17.021Z,11.80
2023-01-02T20:38:02.860Z,11.70
2023-01-02T20:40:48.633Z,11.60
2023-01-02T20:43:34.730Z,11.60
2023-01-02T20:46:20.815Z,11.50
2023-01-02T20:49:07.314Z,11.50
2023-01-02T20:51:55.764Z,11.40
2023-01-02T20:54:41.793Z,11.30
2023-01-02T20:57:28.035Z,11.30
2023-01-02T21:00:14.145Z,11.10
2023-01-02T21:03:00.282Z,11.00
2023-01-02T21:05:46.307Z,11.00
2023-01-02T21:08:32.175Z,10.90
2023-01-02T21:11:18.178Z,10.80
2023-01-02T21:14:04.285Z,10.80
2023-01-02T21:16:50.482Z,10.70
2023-01-02T21:19:36.277Z,10.70
2023-01-02T21:22:23.207Z,10.60
2023-01-02T21:25:09.200Z,10.60
2023-01-02T21:27:55.326Z,10.60
2023-01-02T21:30:43.493Z,10.60
2023-01-02T21:33:29.903Z,10.60
2023-01-02T21:36:16.076Z,10.60
2023-01-02T21:39:02.055Z,10.60
2023-01-02T21:42:06.834Z,10.50
2023-01-02T21:44:53.393Z,10.60
2023-01-02T21:47:39.481Z,10.60
2023-01-02T21:50:25.298Z,10.60
2023-01-02T21:53:12.556Z,10.60
2023-01-02T21:55:58.432Z,10.50
2023-01-02T21:58:44.370Z,10.50
2023-01-02T22:01:30.820Z,10.50
2023-01-02T22:04:16.753Z,10.50
2023-01-02T22:10:10.414Z,10.60
2023-01-02T22:12:56.264Z,10.60
2023-01-02T22:15:45.628Z,10.60
2023-01-02T22:18:36.278Z,10.60
2023-01-02T22:21:24.158Z,10.70
2023-01-02T22:24:10.343Z,10.70
2023-01-02T22:26:57.090Z,10.70
2023-01-02T22:30:19.012Z,10.70
2023-01-02T22:32:49.926Z,10.70
2023-01-02T22:35:36.355Z,10.70
2023-01-02T22:38:22.243Z,10.70
2023-01-02T22:41:09.085Z,10.70
2023-01-02T22:43:55.219Z,10.70
2023-01-02T22:46:43.109Z,10.70
2023-01-02T22:49:31.018Z,10.70
2023-01-02T22:52:17.080Z,10.70
2023-01-02T22:55:14.857Z,10.70
2023-01-02T22:58:00.804Z,10.60
2023-01-02T23:00:47.778Z,10.60
2023-01-02T23:03:37.964Z,10.60
2023-01-02T23:06:24.179Z,10.70
2023-01-02T23:09:10.130Z,10.70
2023-01-02T23:11:56.075Z,10.70
2023-01-02T23:14:42.338Z,10.60
2023-01-02T23:17:46.791Z,10.60
2023-01-02T23:20:32.967Z,10.70
2023-01-02T23:23:19.036Z,10.70
2023-01-02T23:26:06.377Z,10.80
2023-01-02T23:29:08.693Z,10.80
2023-01-02T23:31:55.627Z,10.90
2023-01-02T23:34:41.870Z,10.90
2023-01-02T23:37:27.588Z,11.00
2023-01-02T23:40:13.801Z,11.00
2023-01-02T23:43:00.094Z,11.10
2023-01-02T23:45:46.033Z,11.10
2023-01-02T23:48:32.149Z,11.10
2023-01-02T23:51:18.509Z,11.10
2023-01-02T23:54:04.797Z,11.20
2023-01-02T23:56:51.277Z,11.20
2023-01-02T23:59:36.995Z,11.30
